Terminal Aerodrome Forecast
Issued by NWS

Home | Current Version | Previous Version | Text Only | Print | Product List | Glossary On
Versions: 1 2 3 4 5 6 7 8 9 10 11 12 13 14 15 16 17 18 19 20 21 22 23 24 25 26 27 28 29
000
FTUS41 KOKX 040224 AAA
TAFGON
TAF AMD
KGON 040224Z 0402/0424 31011G17KT P6SM SCT050
     FM040500 32010KT P6SM FEW050
     FM041300 34011KT P6SM FEW050
     FM042200 35007KT P6SM FEW050 SCT250=

USA.gov is the U.S. government's official web portal to all federal, state and local government web resources and services.